Time;durP1;ratioP1;P1;durP2;ratioP2;P2;SDS_P1;SDS_P2;PMS_P1;PMS_P2;Temp;Humidity;BMP_temperature;BMP_pressure;BME280_temperature;BME280_humidity;BME280_pressure;Samples;Min_cycle;Max_cycle;Signal;HPM_P1;HPM_P2
2023/04/06 00:00:58;;;;;;;;;;;;;;;3.27;62.08;101861.78;5053288;28;20371;-48
2023/04/06 00:03:23;;;;;;;;;;;;;;;3.21;62.36;101849.53;5051634;28;19924;-48
2023/04/06 00:05:48;;;;;;;;;;;;;;;3.18;62.39;101850.19;5054829;28;19940;-43
2023/04/06 00:08:14;;;;;;;;;;;;;;;3.16;63.21;101854.28;5043160;28;20444;-43
2023/04/06 00:10:39;;;;;;;;;;;;;;;3.14;63.15;101853.28;5059164;28;19917;-43
2023/04/06 00:13:04;;;;;;;;;;;;;;;3.10;62.33;101841.13;5056255;28;19913;-43
2023/04/06 00:15:30;;;;;;;;;;;;;;;3.07;63.10;101840.91;5057207;28;19971;-43
2023/04/06 00:17:55;;;;;;;;;;;;;;;3.06;62.82;101844.22;5052806;28;19928;-44
2023/04/06 00:20:21;;;;;;;;;;;;;;;3.05;63.44;101847.53;5056242;28;20007;-43
2023/04/06 00:22:46;;;;;;;;;;;;;;;3.03;63.56;101845.63;5052466;28;19920;-43
2023/04/06 00:25:11;;;;;;;;;;;;;;;3.03;62.97;101840.56;5054725;28;19916;-46
2023/04/06 00:27:37;;;;;;;;;;;;;;;3.00;63.20;101836.13;5052904;28;19916;-43
2023/04/06 00:30:04;;;;;;;;;;;;;;;2.99;63.06;101836.91;5051529;28;19923;-43
2023/04/06 00:32:29;;;;;;;;;;;;;;;2.97;63.03;101830.81;5040773;28;19916;-42
2023/04/06 00:34:55;;;;;;;;;;;;;;;2.96;63.92;101831.59;5052496;28;19921;-48
2023/04/06 00:37:20;;;;;;;;;;;;;;;2.95;63.38;101827.28;5053937;28;19928;-47
2023/04/06 00:39:45;;;;;;;;;;;;;;;2.94;63.84;101821.31;5055106;28;20930;-48
2023/04/06 00:42:14;;;;;;;;;;;;;;;2.93;63.50;101821.22;5057315;28;19974;-49
2023/04/06 00:44:42;;;;;;;;;;;;;;;2.92;63.42;101814.38;5057117;28;20028;-48
2023/04/06 00:47:07;;;;;;;;;;;;;;;2.91;63.64;101810.03;5055404;28;19940;-48
2023/04/06 00:49:33;;;;;;;;;;;;;;;2.90;62.09;101813.34;5055501;28;20364;-48
2023/04/06 00:51:59;;;;;;;;;;;;;;;2.89;62.21;101806.50;5055969;28;20043;-48
2023/04/06 00:54:24;;;;;;;;;;;;;;;2.89;63.28;101812.47;5055637;28;19916;-49
2023/04/06 00:56:50;;;;;;;;;;;;;;;2.87;62.96;101800.44;5054257;28;20363;-52
2023/04/06 00:59:15;;;;;;;;;;;;;;;2.87;62.82;101805.53;5053155;28;19935;-46
2023/04/06 01:01:40;;;;;;;;;;;;;;;2.86;62.82;101803.75;5056300;28;19924;-47
2023/04/06 01:04:06;;;;;;;;;;;;;;;2.86;62.87;101798.69;5055234;28;19916;-48
2023/04/06 01:06:31;;;;;;;;;;;;;;;2.84;62.45;101797.66;5059190;28;19916;-49
2023/04/06 01:08:56;;;;;;;;;;;;;;;2.84;63.37;101795.13;5053298;28;20805;-49
2023/04/06 01:11:22;;;;;;;;;;;;;;;2.83;63.14;101790.81;5051293;28;20166;-48
2023/04/06 01:13:47;;;;;;;;;;;;;;;2.82;63.19;101795.03;5050236;28;19924;-51
2023/04/06 01:16:12;;;;;;;;;;;;;;;2.81;62.60;101783.09;5053266;28;20303;-48
2023/04/06 01:18:38;;;;;;;;;;;;;;;2.81;63.17;101789.84;5053224;28;19943;-49
2023/04/06 01:21:03;;;;;;;;;;;;;;;2.84;62.57;101787.50;5054538;28;19921;-47
2023/04/06 01:23:29;;;;;;;;;;;;;;;2.83;63.48;101783.19;5051740;28;20030;-48
2023/04/06 01:25:54;;;;;;;;;;;;;;;2.84;63.24;101783.31;5054596;28;19916;-48
2023/04/06 01:28:20;;;;;;;;;;;;;;;2.85;63.73;101782.56;5058694;28;19916;-48
2023/04/06 01:30:45;;;;;;;;;;;;;;;2.87;62.00;101772.50;5043807;28;19966;-49
2023/04/06 01:33:11;;;;;;;;;;;;;;;2.89;61.54;101773.50;5051371;28;19917;-48
2023/04/06 01:35:36;;;;;;;;;;;;;;;2.91;62.43;101766.84;5052995;28;19920;-50
2023/04/06 01:38:01;;;;;;;;;;;;;;;2.94;62.60;101773.06;5052500;28;19940;-47
2023/04/06 01:40:26;;;;;;;;;;;;;;;2.95;63.85;101762.13;5051371;28;20006;-51
2023/04/06 01:42:52;;;;;;;;;;;;;;;2.99;63.45;101763.22;5042308;28;19924;-49
2023/04/06 01:45:17;;;;;;;;;;;;;;;2.99;63.22;101760.69;5052019;28;20011;-48
2023/04/06 01:47:42;;;;;;;;;;;;;;;3.01;63.55;101755.72;5048346;28;19948;-48
2023/04/06 01:50:08;;;;;;;;;;;;;;;3.01;63.44;101754.06;5052878;28;19916;-51
2023/04/06 01:52:33;;;;;;;;;;;;;;;3.02;63.80;101760.03;5052304;28;19954;-47
2023/04/06 01:54:58;;;;;;;;;;;;;;;3.01;64.39;101751.50;5053103;28;19921;-47
2023/04/06 01:57:25;;;;;;;;;;;;;;;3.05;63.97;101750.09;5050630;28;20598;-48
2023/04/06 01:59:50;;;;;;;;;;;;;;;3.07;63.84;101740.91;5052996;28;19919;-48
2023/04/06 02:02:15;;;;;;;;;;;;;;;3.08;63.81;101743.56;5048739;28;19916;-49
2023/04/06 02:04:41;;;;;;;;;;;;;;;3.10;63.50;101738.59;5052775;28;20361;-48
2023/04/06 02:07:06;;;;;;;;;;;;;;;3.13;63.56;101737.16;5056287;28;19920;-48
2023/04/06 02:09:31;;;;;;;;;;;;;;;3.14;63.23;101732.94;5051132;28;19928;-49
2023/04/06 02:11:56;;;;;;;;;;;;;;;3.17;63.61;101734.06;5051681;28;20344;-48
2023/04/06 02:14:24;;;;;;;;;;;;;;;3.18;63.99;101729.88;5053533;28;19919;-48
2023/04/06 02:16:50;;;;;;;;;;;;;;;3.20;63.99;101724.09;5048297;28;19929;-49
2023/04/06 02:19:15;;;;;;;;;;;;;;;3.21;63.71;101715.69;5052348;28;20782;-47
2023/04/06 02:21:40;;;;;;;;;;;;;;;3.24;63.72;101717.59;5051621;28;19971;-48
2023/04/06 02:24:06;;;;;;;;;;;;;;;3.27;63.46;101720.34;5059664;28;19927;-47
2023/04/06 02:26:31;;;;;;;;;;;;;;;3.28;64.16;101713.63;5059537;28;19917;-49
2023/04/06 02:28:56;;;;;;;;;;;;;;;3.30;64.21;101715.47;5035237;28;19917;-51
2023/04/06 02:31:21;;;;;;;;;;;;;;;3.33;64.00;101709.72;5051584;28;19989;-48
2023/04/06 02:33:47;;;;;;;;;;;;;;;3.35;64.31;101710.72;5054096;28;19916;-48
2023/04/06 02:36:12;;;;;;;;;;;;;;;3.37;64.11;101701.53;5059132;28;19949;-47
2023/04/06 02:38:37;;;;;;;;;;;;;;;3.40;64.07;101702.66;5055008;28;20268;-47
2023/04/06 02:41:02;;;;;;;;;;;;;;;3.43;63.92;101707.06;5054942;28;19924;-48
2023/04/06 02:43:28;;;;;;;;;;;;;;;3.43;64.89;101691.81;5053960;28;19923;-48
2023/04/06 02:45:53;;;;;;;;;;;;;;;3.46;64.59;101703.09;5053185;28;19916;-48
2023/04/06 02:48:18;;;;;;;;;;;;;;;3.46;63.61;101698.00;5054526;28;19920;-48
2023/04/06 02:50:44;;;;;;;;;;;;;;;3.50;64.90;101691.44;5056742;28;19966;-48
2023/04/06 02:53:09;;;;;;;;;;;;;;;3.52;64.24;101695.00;5054413;28;19916;-48
2023/04/06 02:55:34;;;;;;;;;;;;;;;3.52;64.42;101683.91;5053278;28;20279;-47
2023/04/06 02:58:00;;;;;;;;;;;;;;;3.54;64.38;101683.25;5059992;28;19951;-48
2023/04/06 03:00:26;;;;;;;;;;;;;;;3.54;64.12;101679.84;5060109;28;20517;-48
2023/04/06 03:02:51;;;;;;;;;;;;;;;3.54;64.85;101680.72;5064930;28;19951;-48
2023/04/06 03:05:16;;;;;;;;;;;;;;;3.56;64.70;101683.38;5061723;28;19956;-49
2023/04/06 03:07:41;;;;;;;;;;;;;;;3.56;64.81;101676.63;5059705;28;20462;-48
2023/04/06 03:10:07;;;;;;;;;;;;;;;3.60;64.45;101682.81;5058635;28;19994;-47
2023/04/06 03:12:32;;;;;;;;;;;;;;;3.58;65.44;101676.72;5060600;28;19924;-48
2023/04/06 03:14:57;;;;;;;;;;;;;;;3.59;65.33;101676.84;5067053;28;19920;-48
2023/04/06 03:17:23;;;;;;;;;;;;;;;3.60;64.61;101675.19;5061629;28;19975;-47
2023/04/06 03:19:48;;;;;;;;;;;;;;;3.60;64.71;101673.53;5063871;28;20011;-47
2023/04/06 03:22:13;;;;;;;;;;;;;;;3.62;64.69;101673.63;5062541;28;20327;-49
2023/04/06 03:24:38;;;;;;;;;;;;;;;3.63;65.31;101671.16;5061268;28;20014;-48
2023/04/06 03:27:04;;;;;;;;;;;;;;;3.64;65.54;101667.88;5062538;28;19975;-48
2023/04/06 03:29:29;;;;;;;;;;;;;;;3.65;65.39;101666.22;5059678;28;20414;-48
2023/04/06 03:31:55;;;;;;;;;;;;;;;3.64;65.99;101656.78;5060865;28;19917;-49
2023/04/06 03:34:20;;;;;;;;;;;;;;;3.64;65.22;101657.69;5041736;28;19916;-47
2023/04/06 03:36:45;;;;;;;;;;;;;;;3.64;65.99;101657.69;5056520;28;20250;-49
2023/04/06 03:39:10;;;;;;;;;;;;;;;3.63;65.90;101663.53;5058362;28;19960;-48
2023/04/06 03:41:36;;;;;;;;;;;;;;;3.65;65.17;101659.47;5064446;28;19923;-47
2023/04/06 03:44:01;;;;;;;;;;;;;;;3.64;65.78;101664.41;5055264;28;20008;-48
2023/04/06 03:46:26;;;;;;;;;;;;;;;3.62;66.32;101654.16;5062755;28;19924;-48
2023/04/06 03:48:52;;;;;;;;;;;;;;;3.62;66.43;101654.16;5055986;28;19943;-49
2023/04/06 03:51:17;;;;;;;;;;;;;;;3.60;66.65;101653.16;5059612;28;19923;-50
2023/04/06 03:53:42;;;;;;;;;;;;;;;3.58;66.45;101653.81;5055812;28;20390;-51
2023/04/06 03:56:07;;;;;;;;;;;;;;;3.58;66.54;101651.28;5056205;28;20018;-48
2023/04/06 03:58:33;;;;;;;;;;;;;;;3.54;66.16;101656.97;5061019;28;19925;-51
2023/04/06 04:00:58;;;;;;;;;;;;;;;3.53;66.51;101653.53;5060013;28;19922;-48
2023/04/06 04:03:25;;;;;;;;;;;;;;;3.48;66.01;101652.31;5057736;28;20276;-49
2023/04/06 04:05:52;;;;;;;;;;;;;;;3.46;66.72;101651.34;5058448;28;19966;-49
2023/04/06 04:08:17;;;;;;;;;;;;;;;3.46;67.37;101659.84;5060723;28;19921;-48
2023/04/06 04:10:43;;;;;;;;;;;;;;;3.44;66.70;101655.44;5060097;28;20417;-48
2023/04/06 04:13:08;;;;;;;;;;;;;;;3.43;65.79;101648.59;5055866;28;19923;-48
2023/04/06 04:15:33;;;;;;;;;;;;;;;3.42;67.45;101655.31;5056631;28;19947;-47
2023/04/06 04:17:59;;;;;;;;;;;;;;;3.42;67.52;101652.78;5055351;28;19966;-48
2023/04/06 04:20:24;;;;;;;;;;;;;;;3.41;66.06;101652.69;5054656;28;19924;-42
2023/04/06 04:22:49;;;;;;;;;;;;;;;3.42;66.34;101657.00;5052456;28;20275;-44
2023/04/06 04:25:14;;;;;;;;;;;;;;;3.42;66.04;101654.44;5052017;28;19996;-43
2023/04/06 04:27:40;;;;;;;;;;;;;;;3.40;66.32;101650.94;5052289;28;20391;-42
2023/04/06 04:30:05;;;;;;;;;;;;;;;3.40;67.14;101645.84;5056828;28;19916;-42
2023/04/06 04:32:30;;;;;;;;;;;;;;;3.39;67.16;101649.13;5055286;28;20435;-44
2023/04/06 04:34:56;;;;;;;;;;;;;;;3.39;67.52;101650.00;5058113;28;19932;-43
2023/04/06 04:37:21;;;;;;;;;;;;;;;3.37;67.34;101649.03;5059410;28;19920;-43
2023/04/06 04:39:46;;;;;;;;;;;;;;;3.37;67.13;101649.03;5057896;28;20418;-43
2023/04/06 04:42:12;;;;;;;;;;;;;;;3.36;68.18;101648.94;5054081;28;19921;-45
2023/04/06 04:44:37;;;;;;;;;;;;;;;3.36;66.92;101648.94;5055849;28;20294;-44
2023/04/06 04:47:02;;;;;;;;;;;;;;;3.36;67.52;101644.75;5053709;28;20000;-44
2023/04/06 04:49:27;;;;;;;;;;;;;;;3.36;67.98;101638.78;5052663;28;20355;-43
2023/04/06 04:51:53;;;;;;;;;;;;;;;3.37;68.25;101643.06;5052712;28;20311;-43
2023/04/06 04:54:18;;;;;;;;;;;;;;;3.38;67.88;101643.16;5056566;28;19920;-43
2023/04/06 04:56:44;;;;;;;;;;;;;;;3.37;68.62;101643.06;5052783;28;20295;-42
2023/04/06 04:59:10;;;;;;;;;;;;;;;3.39;68.54;101644.06;5053463;28;20346;-45
2023/04/06 05:01:35;;;;;;;;;;;;;;;3.38;67.69;101633.00;5049685;28;19917;-44
2023/04/06 05:04:00;;;;;;;;;;;;;;;3.42;67.88;101640.06;5050772;28;19959;-43
2023/04/06 05:06:26;;;;;;;;;;;;;;;3.44;68.33;101638.50;5053423;28;19932;-42
2023/04/06 05:08:51;;;;;;;;;;;;;;;3.46;67.67;101642.06;5052790;28;20406;-46
2023/04/06 05:11:16;;;;;;;;;;;;;;;3.48;68.03;101639.63;5054110;28;20435;-50
2023/04/06 05:13:42;;;;;;;;;;;;;;;3.50;66.80;101645.69;5056031;28;19924;-51
2023/04/06 05:16:07;;;;;;;;;;;;;;;3.53;67.53;101638.28;5051549;28;19920;-48
2023/04/06 05:18:32;;;;;;;;;;;;;;;3.56;68.02;101635.03;5056225;28;20004;-49
2023/04/06 05:20:58;;;;;;;;;;;;;;;3.58;68.75;101636.03;5055981;28;19932;-49
2023/04/06 05:23:23;;;;;;;;;;;;;;;3.61;68.22;101636.25;5052325;28;20417;-49
2023/04/06 05:25:48;;;;;;;;;;;;;;;3.64;68.10;101638.97;5052646;28;19913;-49
2023/04/06 05:28:15;;;;;;;;;;;;;;;3.67;66.44;101635.00;5051101;28;19966;-48
2023/04/06 05:30:41;;;;;;;;;;;;;;;3.69;66.82;101632.56;5054862;28;19913;-50
2023/04/06 05:33:06;;;;;;;;;;;;;;;3.72;67.12;101630.22;5057844;28;19923;-47
2023/04/06 05:35:32;;;;;;;;;;;;;;;3.74;67.63;101631.22;5057152;28;20418;-49
2023/04/06 05:37:57;;;;;;;;;;;;;;;3.76;68.00;101622.91;5053524;28;19920;-48
2023/04/06 05:40:23;;;;;;;;;;;;;;;3.82;66.87;101636.81;5043708;28;19920;-51
2023/04/06 05:42:49;;;;;;;;;;;;;;;3.84;67.46;101628.50;5037990;28;19920;-49
2023/04/06 05:45:16;;;;;;;;;;;;;;;3.90;67.57;101631.47;5056341;28;19952;-47
2023/04/06 05:47:42;;;;;;;;;;;;;;;3.92;67.26;101623.94;5050455;28;19916;-49
2023/04/06 05:50:07;;;;;;;;;;;;;;;3.97;66.48;101620.03;5065732;28;19963;-51
2023/04/06 05:52:33;;;;;;;;;;;;;;;3.98;66.97;101615.03;5054234;28;19913;-47
2023/04/06 05:54:58;;;;;;;;;;;;;;;4.04;66.87;101622.19;5052814;28;19916;-44
2023/04/06 05:57:23;;;;;;;;;;;;;;;4.09;66.20;101620.84;5055720;28;19924;-44
2023/04/06 05:59:49;;;;;;;;;;;;;;;4.14;67.03;101627.13;5055743;28;19924;-45
2023/04/06 06:02:14;;;;;;;;;;;;;;;4.19;66.83;101628.31;5057394;28;19963;-44
2023/04/06 06:04:39;;;;;;;;;;;;;;;4.22;66.20;101623.41;5049614;28;19917;-44
2023/04/06 06:07:05;;;;;;;;;;;;;;;4.28;67.07;101621.25;5053958;28;19924;-44
2023/04/06 06:09:30;;;;;;;;;;;;;;;4.32;66.24;101622.38;5057746;28;19942;-47
2023/04/06 06:11:55;;;;;;;;;;;;;;;4.36;66.38;101620.88;5037446;28;19920;-45
2023/04/06 06:14:21;;;;;;;;;;;;;;;4.41;67.16;101622.06;5046910;28;19924;-45
2023/04/06 06:16:47;;;;;;;;;;;;;;;4.41;66.92;101642.44;5049765;28;20437;-44
2023/04/06 06:19:12;;;;;;;;;;;;;;;4.48;67.30;101652.22;5052400;28;19909;-45
2023/04/06 06:21:37;;;;;;;;;;;;;;;4.55;66.85;101641.66;5050762;28;19919;-44
2023/04/06 06:24:03;;;;;;;;;;;;;;;4.61;67.00;101634.44;5050471;28;19917;-43
2023/04/06 06:26:28;;;;;;;;;;;;;;;4.70;67.49;101635.00;5060957;28;19916;-44
2023/04/06 06:28:53;;;;;;;;;;;;;;;4.79;66.01;101630.50;5057954;28;19923;-45
2023/04/06 06:31:22;;;;;;;;;;;;;;;4.84;66.73;101629.13;5056424;28;19912;-46
2023/04/06 06:33:50;;;;;;;;;;;;;;;4.90;66.53;101630.28;5056149;28;19921;-43
2023/04/06 06:36:15;;;;;;;;;;;;;;;4.96;65.46;101630.66;5055582;28;19923;-44
2023/04/06 06:38:40;;;;;;;;;;;;;;;5.01;66.12;101632.72;5050784;28;19913;-44
2023/04/06 06:41:06;;;;;;;;;;;;;;;5.06;65.85;101627.91;5050432;28;19917;-44
2023/04/06 06:43:31;;;;;;;;;;;;;;;5.11;66.24;101635.06;5051938;28;20249;-44
2023/04/06 06:45:56;;;;;;;;;;;;;;;5.20;65.89;101639.84;5060918;28;19920;-44
2023/04/06 06:48:22;;;;;;;;;;;;;;;5.22;65.41;101640.84;5053385;28;19913;-44
2023/04/06 06:50:48;;;;;;;;;;;;;;;5.28;64.96;101637.78;5049301;28;19908;-45
2023/04/06 06:53:13;;;;;;;;;;;;;;;5.30;65.55;101637.09;5057194;28;19908;-45
2023/04/06 06:55:38;;;;;;;;;;;;;;;5.34;64.63;101639.06;5054434;28;19913;-45
2023/04/06 06:58:04;;;;;;;;;;;;;;;5.37;65.57;101631.56;5049890;28;19917;-44
2023/04/06 07:00:29;;;;;;;;;;;;;;;5.42;65.26;101626.75;5055735;28;19923;-44
2023/04/06 07:02:54;;;;;;;;;;;;;;;5.46;65.14;101626.16;5053195;28;19939;-48
2023/04/06 07:05:20;;;;;;;;;;;;;;;5.52;64.91;101621.44;5051950;28;20364;-44
2023/04/06 07:07:45;;;;;;;;;;;;;;;5.56;64.72;101622.47;5054736;28;19917;-44
2023/04/06 07:10:10;;;;;;;;;;;;;;;5.58;65.28;101626.91;5054206;28;19943;-44
2023/04/06 07:12:35;;;;;;;;;;;;;;;5.62;65.12;101623.72;5053084;28;20024;-46
2023/04/06 07:15:01;;;;;;;;;;;;;;;5.67;65.25;101629.13;5057258;28;19917;-44
2023/04/06 07:17:26;;;;;;;;;;;;;;;5.72;65.22;101621.75;5052241;28;19939;-45
2023/04/06 07:19:52;;;;;;;;;;;;;;;5.76;65.37;101606.69;5048472;28;19916;-45
2023/04/06 07:22:17;;;;;;;;;;;;;;;5.80;65.21;101608.63;5058902;28;19963;-44
2023/04/06 07:24:42;;;;;;;;;;;;;;;5.85;65.23;101612.34;5054686;28;19935;-44
2023/04/06 07:27:07;;;;;;;;;;;;;;;5.90;64.75;101610.94;5050933;28;20291;-45
2023/04/06 07:29:33;;;;;;;;;;;;;;;5.98;64.74;101608.88;5051260;28;19939;-44
2023/04/06 07:31:58;;;;;;;;;;;;;;;6.03;65.06;101616.81;5050198;28;20367;-44
2023/04/06 07:34:23;;;;;;;;;;;;;;;6.10;65.13;101613.81;5052224;28;19924;-44
2023/04/06 07:36:49;;;;;;;;;;;;;;;6.16;64.94;101611.59;5051361;28;19990;-46
2023/04/06 07:39:14;;;;;;;;;;;;;;;6.24;64.60;101617.16;5050968;28;19909;-44
2023/04/06 07:41:40;;;;;;;;;;;;;;;6.29;64.77;101606.41;5050684;28;20001;-44
2023/04/06 07:44:05;;;;;;;;;;;;;;;6.37;64.41;101610.28;5049430;28;19921;-44
2023/04/06 07:46:31;;;;;;;;;;;;;;;6.46;63.64;101602.25;5049546;28;19924;-44
2023/04/06 07:48:56;;;;;;;;;;;;;;;6.52;63.49;101609.38;5055289;28;19912;-45
2023/04/06 07:51:22;;;;;;;;;;;;;;;6.58;63.29;101604.63;5047383;28;19987;-45
2023/04/06 07:53:47;;;;;;;;;;;;;;;6.64;63.18;101605.84;5059374;28;19939;-45
2023/04/06 07:56:12;;;;;;;;;;;;;;;6.68;62.58;101607.78;5057104;28;19971;-45
2023/04/06 07:58:38;;;;;;;;;;;;;;;6.69;62.26;101604.41;5053290;28;19917;-45
2023/04/06 08:01:03;;;;;;;;;;;;;;;6.69;62.61;101608.66;5055674;28;19986;-48
2023/04/06 08:03:28;;;;;;;;;;;;;;;6.72;62.66;101601.13;5056468;28;19999;-45
2023/04/06 08:05:53;;;;;;;;;;;;;;;6.81;62.75;101614.44;5054441;28;19912;-46
2023/04/06 08:08:20;;;;;;;;;;;;;;;6.89;62.67;101612.31;5056101;28;20015;-45
2023/04/06 08:10:46;;;;;;;;;;;;;;;6.94;63.09;101613.44;5053071;28;19917;-45
2023/04/06 08:13:11;;;;;;;;;;;;;;;7.03;62.38;101613.03;5053770;28;19923;-45
2023/04/06 08:15:36;;;;;;;;;;;;;;;7.04;62.66;101614.78;5056784;28;20000;-46
2023/04/06 08:18:02;;;;;;;;;;;;;;;7.08;62.57;101614.19;5053880;28;20043;-45
2023/04/06 08:20:27;;;;;;;;;;;;;;;7.12;63.41;101611.00;5052153;28;20508;-45
2023/04/06 08:22:53;;;;;;;;;;;;;;;7.20;62.99;101614.84;5053822;28;19977;-42
2023/04/06 08:25:18;;;;;;;;;;;;;;;7.26;61.52;101616.03;5053585;28;19917;-45
2023/04/06 08:27:43;;;;;;;;;;;;;;;7.30;61.79;101614.53;5053830;28;19912;-45
2023/04/06 08:30:09;;;;;;;;;;;;;;;7.31;61.90;101616.28;5053857;28;19916;-45
2023/04/06 08:32:34;;;;;;;;;;;;;;;7.24;61.71;101616.78;5057893;28;19939;-44
2023/04/06 08:34:59;;;;;;;;;;;;;;;7.23;62.24;101618.44;5057471;28;19932;-45
2023/04/06 08:37:25;;;;;;;;;;;;;;;7.28;62.50;101620.34;5054257;28;20287;-45
2023/04/06 08:39:50;;;;;;;;;;;;;;;7.34;62.27;101620.69;5059602;28;19946;-48
2023/04/06 08:42:24;;;;;;;;;;;;;;;7.43;62.24;101613.50;5057445;28;19921;-45
2023/04/06 08:44:52;;;;;;;;;;;;;;;7.51;62.08;101619.88;5052285;28;19916;-46
2023/04/06 08:47:17;;;;;;;;;;;;;;;7.54;61.71;101622.63;5052886;28;19924;-46
2023/04/06 08:49:44;;;;;;;;;;;;;;;7.61;62.41;101624.69;5056419;28;19986;-44
2023/04/06 08:52:10;;;;;;;;;;;;;;;7.74;62.63;101621.09;5054614;28;20355;-44
2023/04/06 08:54:35;;;;;;;;;;;;;;;7.87;61.95;101622.59;5053577;28;19924;-48
2023/04/06 08:57:01;;;;;;;;;;;;;;;7.92;62.27;101616.91;5055064;28;19921;-48
2023/04/06 08:59:27;;;;;;;;;;;;;;;7.98;62.79;101613.78;5048960;28;19941;-50
2023/04/06 09:01:53;;;;;;;;;;;;;;;8.01;62.71;101613.94;5055891;28;20375;-48
2023/04/06 09:04:18;;;;;;;;;;;;;;;8.09;62.49;101616.88;5057733;28;19924;-49
2023/04/06 09:06:43;;;;;;;;;;;;;;;8.12;62.81;101624.72;5055645;28;20510;-49
2023/04/06 09:09:08;;;;;;;;;;;;;;;8.04;63.55;101617.53;5052104;28;19928;-48
2023/04/06 09:11:50;;;;;;;;;;;;;;;8.12;63.69;101617.91;5053031;28;19917;-49
2023/04/06 09:14:16;;;;;;;;;;;;;;;8.22;63.22;101625.25;5056551;28;19912;-49
2023/04/06 09:16:42;;;;;;;;;;;;;;;8.28;64.03;101619.56;5053217;28;19928;-52
2023/04/06 09:19:08;;;;;;;;;;;;;;;8.33;64.04;101615.53;5055814;28;19916;-49
2023/04/06 09:21:34;;;;;;;;;;;;;;;8.45;64.18;101620.41;5053938;28;19915;-48
2023/04/06 09:24:00;;;;;;;;;;;;;;;8.57;63.65;101616.75;5053889;28;19920;-50
2023/04/06 09:26:26;;;;;;;;;;;;;;;8.68;63.47;101618.97;5051039;28;20901;-50
2023/04/06 09:28:56;;;;;;;;;;;;;;;8.69;63.43;101618.16;5051561;28;19913;-49
2023/04/06 09:31:25;;;;;;;;;;;;;;;8.76;64.39;101623.63;5054987;28;19912;-49
2023/04/06 09:33:51;;;;;;;;;;;;;;;8.85;64.02;101621.50;5057190;28;19927;-49
2023/04/06 09:36:17;;;;;;;;;;;;;;;8.97;63.92;101617.75;5054725;28;20184;-49
2023/04/06 09:38:54;;;;;;;;;;;;;;;9.01;64.84;101620.53;5052487;28;19919;-50
2023/04/06 09:41:48;;;;;;;;;;;;;;;9.05;64.68;101614.75;5052185;28;19912;-49
2023/04/06 09:44:14;;;;;;;;;;;;;;;8.98;65.67;101624.63;5037146;28;19920;-50
2023/04/06 09:46:43;;;;;;;;;;;;;;;9.02;65.45;101621.41;5057371;28;20268;-50
2023/04/06 09:49:08;;;;;;;;;;;;;;;9.02;67.50;101623.97;5055909;28;19998;-48
2023/04/06 09:51:37;;;;;;;;;;;;;;;8.99;67.62;101616.16;5053604;28;19920;-49
2023/04/06 09:54:04;;;;;;;;;;;;;;;9.04;68.22;101618.13;5059763;28;19963;-49
2023/04/06 09:56:49;;;;;;;;;;;;;;;9.10;69.08;101610.72;5053478;28;19921;-50
2023/04/06 09:59:28;;;;;;;;;;;;;;;8.96;69.84;101611.75;5054984;28;19920;-48
2023/04/06 10:01:55;;;;;;;;;;;;;;;8.99;70.13;101626.41;5053866;28;19912;-51
2023/04/06 10:04:36;;;;;;;;;;;;;;;8.88;70.81;101631.03;5052839;28;20417;-52
2023/04/06 10:07:02;;;;;;;;;;;;;;;8.77;72.47;101619.38;5056817;28;20444;-49
2023/04/06 10:09:35;;;;;;;;;;;;;;;8.71;73.79;101621.66;5056511;28;19955;-49
2023/04/06 10:12:00;;;;;;;;;;;;;;;8.71;71.68;101619.09;5052408;28;19912;-50
2023/04/06 10:14:26;;;;;;;;;;;;;;;8.66;71.79;101628.25;5054058;28;19919;-49
2023/04/06 10:16:52;;;;;;;;;;;;;;;8.66;75.25;101623.13;5055505;28;19920;-49
2023/04/06 10:19:20;;;;;;;;;;;;;;;8.72;77.48;101626.84;5057498;28;19951;-49
2023/04/06 10:21:48;;;;;;;;;;;;;;;8.73;74.69;101631.16;5055000;28;19912;-47
2023/04/06 10:24:13;;;;;;;;;;;;;;;8.70;74.13;101628.47;5054409;28;19908;-49
2023/04/06 10:26:39;;;;;;;;;;;;;;;8.71;76.67;101635.34;5055938;28;20406;-47
2023/04/06 10:29:05;;;;;;;;;;;;;;;8.68;78.38;101634.34;5056983;28;20419;-50
2023/04/06 10:31:31;;;;;;;;;;;;;;;8.60;78.95;101629.72;5055216;28;19923;-47
2023/04/06 10:33:57;;;;;;;;;;;;;;;8.74;78.80;101637.22;5050454;28;20007;-47
2023/04/06 10:36:25;;;;;;;;;;;;;;;8.54;79.86;101625.97;5052998;28;19946;-48
2023/04/06 10:38:54;;;;;;;;;;;;;;;8.51;78.07;101633.53;5054542;28;19920;-49
2023/04/06 10:41:20;;;;;;;;;;;;;;;8.49;79.10;101630.91;5051995;28;19976;-47
2023/04/06 10:43:54;;;;;;;;;;;;;;;8.54;80.56;101631.97;5055963;28;19919;-48
2023/04/06 10:46:24;;;;;;;;;;;;;;;8.50;82.98;101629.22;5051179;28;19920;-48
2023/04/06 10:48:50;;;;;;;;;;;;;;;8.42;82.95;101626.25;5051483;28;19908;-49
2023/04/06 10:51:16;;;;;;;;;;;;;;;8.41;81.50;101626.19;5052800;28;20003;-49
2023/04/06 10:53:42;;;;;;;;;;;;;;;8.30;83.66;101613.69;5054158;28;20019;-49
2023/04/06 10:56:12;;;;;;;;;;;;;;;8.26;81.68;101623.72;5054691;28;19924;-46
2023/04/06 10:58:37;;;;;;;;;;;;;;;8.21;82.25;101615.81;5049067;28;19921;-48
2023/04/06 11:01:03;;;;;;;;;;;;;;;8.20;85.42;101616.63;5052225;28;20265;-49
2023/04/06 11:03:28;;;;;;;;;;;;;;;8.14;83.99;101610.31;5051408;28;19920;-48
2023/04/06 11:05:54;;;;;;;;;;;;;;;8.14;83.42;101607.75;5046110;28;19916;-47
2023/04/06 11:08:22;;;;;;;;;;;;;;;8.19;83.71;101606.28;5054046;28;19913;-48
2023/04/06 11:10:49;;;;;;;;;;;;;;;7.97;85.64;101601.78;5049560;28;19944;-48
2023/04/06 11:13:14;;;;;;;;;;;;;;;7.93;84.75;101598.19;5049979;28;19929;-48
2023/04/06 11:15:40;;;;;;;;;;;;;;;7.95;85.07;101595.72;5056555;28;19967;-47
2023/04/06 11:18:05;;;;;;;;;;;;;;;7.99;82.79;101597.59;5058363;28;19920;-48
2023/04/06 11:20:30;;;;;;;;;;;;;;;8.08;86.66;101605.75;5053332;28;19958;-51
2023/04/06 11:22:56;;;;;;;;;;;;;;;7.98;88.67;101601.84;5059021;28;20386;-47
2023/04/06 11:25:21;;;;;;;;;;;;;;;8.05;86.11;101598.78;5056624;28;19917;-48
2023/04/06 11:27:47;;;;;;;;;;;;;;;8.04;88.56;101593.59;5058241;28;19917;-47
2023/04/06 11:30:13;;;;;;;;;;;;;;;8.10;90.20;101598.16;5054425;28;19939;-48
2023/04/06 11:32:42;;;;;;;;;;;;;;;8.13;90.31;101598.28;5055935;28;20387;-47
2023/04/06 11:35:12;;;;;;;;;;;;;;;8.11;91.74;101590.53;5052947;28;19924;-49
2023/04/06 11:37:37;;;;;;;;;;;;;;;8.13;88.76;101577.78;5053290;28;19925;-47
2023/04/06 11:40:03;;;;;;;;;;;;;;;8.20;88.89;101578.19;5057332;28;19916;-47
2023/04/06 11:42:29;;;;;;;;;;;;;;;8.31;88.80;101578.69;5054556;28;19960;-48
2023/04/06 11:44:57;;;;;;;;;;;;;;;8.33;90.55;101575.41;5051182;28;19913;-47
2023/04/06 11:47:30;;;;;;;;;;;;;;;8.32;87.67;101570.22;5055218;28;19930;-48
2023/04/06 11:49:55;;;;;;;;;;;;;;;8.40;86.16;101565.50;5054663;28;20291;-49
2023/04/06 11:52:23;;;;;;;;;;;;;;;8.48;89.13;101561.59;5063688;28;19916;-47
2023/04/06 11:54:49;;;;;;;;;;;;;;;8.52;89.33;101559.25;5057953;28;19919;-47
2023/04/06 11:57:15;;;;;;;;;;;;;;;8.56;89.50;101561.19;5059748;28;20078;-47
2023/04/06 11:59:40;;;;;;;;;;;;;;;8.67;89.08;101555.66;5062094;28;20346;-50
2023/04/06 12:02:06;;;;;;;;;;;;;;;8.83;92.99;101546.19;5061934;28;20375;-51
2023/04/06 12:04:31;;;;;;;;;;;;;;;8.98;88.22;101561.41;5063654;28;20031;-50
2023/04/06 12:06:57;;;;;;;;;;;;;;;9.09;88.88;101561.88;5060885;28;19916;-50
2023/04/06 12:09:22;;;;;;;;;;;;;;;9.15;90.01;101546.75;5057807;28;20401;-52
2023/04/06 12:11:47;;;;;;;;;;;;;;;9.08;88.39;101555.88;5057050;28;19916;-49
2023/04/06 12:14:13;;;;;;;;;;;;;;;9.09;89.52;101551.59;5052358;28;20038;-52
2023/04/06 12:16:38;;;;;;;;;;;;;;;9.21;88.57;101538.44;5049726;28;19916;-51
2023/04/06 12:19:04;;;;;;;;;;;;;;;9.24;88.24;101543.72;5058222;28;19935;-49
2023/04/06 12:21:32;;;;;;;;;;;;;;;9.20;88.40;101541.84;5052553;28;20050;-48
2023/04/06 12:23:58;;;;;;;;;;;;;;;9.14;87.99;101540.75;5056500;28;19916;-51
2023/04/06 12:26:24;;;;;;;;;;;;;;;9.08;89.65;101540.47;5051936;28;19919;-52
2023/04/06 12:28:49;;;;;;;;;;;;;;;8.98;89.74;101542.53;5048302;28;19920;-50
2023/04/06 12:31:18;;;;;;;;;;;;;;;8.87;91.10;101542.09;5052431;28;19927;-47
2023/04/06 12:33:46;;;;;;;;;;;;;;;8.71;90.41;101540.50;5052048;28;19968;-52
2023/04/06 12:36:13;;;;;;;;;;;;;;;8.61;92.56;101545.97;5050623;28;20499;-48
2023/04/06 12:38:39;;;;;;;;;;;;;;;8.53;92.66;101547.31;5054194;28;20043;-50
2023/04/06 12:41:05;;;;;;;;;;;;;;;8.44;93.22;101541.78;5052372;28;20394;-49